M01 weather

General Dewitt Spain Airport
Memphis, Tennessee, United States

Public forecast

Using degrees Fahrenheit for public forecast. Weather courtesy of forecast.io.

METAR (pilot weather report)

Closest report is West Memphis Municipal Airport, 9.7 nm (17.9 km) WSW. Retrieved 2019/06/19 03:53 UTC (42 minutes ago):

KAWM 190353Z AUTO 18004KT 7SM CLR 24/23 A2984 RMK AO2 SLP101 T02390228

TAF (pilot weather forecast)

Forecast is more than 12 hours old.

Closest forecast is Memphis International Airport, 10.2 nm (19.0 km) SSE. Retrieved 2019/06/18 00:27 UTC (1 day ago):

TAF KMEM 182325Z 1900/2006 22006KT P6SM VCSH SCT040 BKN080 FM190300 19006KT P6SM FEW040 BKN150 TEMPO 1910/1913 5SM BR SCT040 FM191600 22013G20KT P6SM VCSH SCT045 BKN150 FM200000 21013G20KT P6SM VCTS SCT040CB BKN100